Home > Products > Valid Products > MTR

000
SAUS46 KMTR 012157
MTRMHS
METAR KMHS 012156Z AUTO 31007G18KT 270V340 10SM CLR 12/M05 A3013 RMK
AO2 SLP223 T01221050





000
SAUS46 KMTR 011955
MTRMHS
METAR KMHS 011956Z AUTO 32011G20KT 280V350 10SM SCT080 10/M04 A3018
RMK AO2 SLP240 T01001044





000
SAUS46 KMTR 011955
MTRMHS
METAR KMHS 011956Z AUTO 32011G20KT 280V350 10SM SCT080 10/M04 A3018
RMK AO2 SLP240 T01001044





000
SAUS46 KMTR 011857
MTRMHS
METAR KMHS 011856Z AUTO 36007KT 330V030 10SM CLR 09/M04 A3019 RMK
AO2 SLP245 T00941039





000
SAUS46 KMTR 011756
MTRMHS
METAR KMHS 011756Z AUTO 32007KT 280V010 10SM CLR 08/M03 A3021 RMK
AO2 SLP250 T00781028 10078 21022 58002





000
SAUS46 KMTR 011756
MTRMHS
METAR KMHS 011756Z AUTO 32007KT 280V010 10SM CLR 08/M03 A3021 RMK
AO2 SLP250 T00781028 10078 21022 58002





000
SAUS46 KMTR 011657
MTRMHS
METAR KMHS 011656Z AUTO VRB05G18KT 10SM CLR 06/M02 A3021 RMK AO2
SLP253 T00611022





000
SAUS46 KMTR 011457
MTRMHS
METAR KMHS 011456Z AUTO 00000KT 10SM CLR 01/M03 A3021 RMK AO2 SLP257
T00111028 53002





000
SAUS46 KMTR 011457
MTRMHS
METAR KMHS 011456Z AUTO 00000KT 10SM CLR 01/M03 A3021 RMK AO2 SLP257
T00111028 53002





000
SAUS46 KMTR 011357
MTRMHS
METAR KMHS 011356Z AUTO 00000KT 10SM CLR M02/M04 A3020 RMK AO2
SLP255 T10171044





000
SAUS46 KMTR 011157
MTRMHS
METAR KMHS 011156Z AUTO 00000KT 10SM CLR M01/M04 A3020 RMK AO2
SLP252 T10061039 10039 21011 58006





000
SAUS46 KMTR 011157
MTRMHS
METAR KMHS 011156Z AUTO 00000KT 10SM CLR M01/M04 A3020 RMK AO2
SLP252 T10061039 10039 21011 58006





000
SAUS46 KMTR 011055
MTRMHS
METAR KMHS 011056Z AUTO 00000KT 10SM CLR 00/M03 A3021 RMK AO2 SLP250
T00001033





000
SAUS46 KMTR 010856
MTRMHS
METAR KMHS 010856Z AUTO VRB05KT 10SM CLR 03/M03 A3022 RMK AO2 SLP251
T00331033 55000





000
SAUS46 KMTR 010755
MTRMHS
METAR KMHS 010756Z AUTO 00000KT 10SM CLR 02/M04 A3021 RMK AO2 SLP250
T00221044 401330011





000
SAUS46 KMTR 010656
MTRMHS
METAR KMHS 010656Z AUTO VRB04KT 10SM CLR 03/M04 A3022 RMK AO2 SLP253
T00281039





000
SAUS46 KMTR 010656
MTRMHS
METAR KMHS 010656Z AUTO VRB04KT 10SM CLR 03/M04 A3022 RMK AO2 SLP253
T00281039





000
SAUS46 KMTR 010557
MTRMHS
METAR KMHS 010556Z AUTO VRB05KT 10SM CLR 04/M04 A3022 RMK AO2 SLP254
T00391039 10111 20039 51016





000
SAUS46 KMTR 010557
MTRMHS
METAR KMHS 010556Z AUTO VRB05KT 10SM CLR 04/M04 A3022 RMK AO2 SLP254
T00391039 10111 20039 51016





000
SAUS46 KMTR 010455
MTRMHS
METAR KMHS 010456Z AUTO VRB04KT 10SM CLR 06/M05 A3021 RMK AO2 SLP251
T00561050





000
SAUS46 KMTR 010455
MTRMHS
METAR KMHS 010456Z AUTO VRB04KT 10SM CLR 06/M05 A3021 RMK AO2 SLP251
T00561050





000
SAUS46 KMTR 010355
MTRMHS
METAR KMHS 010356Z AUTO 30005KT 10SM CLR 06/M04 A3019 RMK AO2 SLP243
T00561044





000
SAUS46 KMTR 010255
MTRMHS
METAR KMHS 010256Z AUTO VRB04KT 10SM CLR 07/M08 A3017 RMK AO2 SLP235
T00721078 51006





000
SAUS46 KMTR 010255
MTRMHS
METAR KMHS 010256Z AUTO VRB04KT 10SM CLR 07/M08 A3017 RMK AO2 SLP235
T00721078 51006





000
SAUS46 KMTR 010155
MTRMHS
METAR KMHS 010156Z AUTO 33006KT 10SM CLR 09/M08 A3016 RMK AO2 SLP238
T00891083





000
SAUS46 KMTR 010055
MTRMHS
METAR KMHS 010056Z AUTO VRB04KT 10SM CLR 11/M08 A3016 RMK AO2 SLP234
T01061083





000
SAUS46 KMTR 312355
MTRMHS
METAR KMHS 312356Z AUTO 28009G16KT 250V310 10SM FEW080 11/M09 A3015
RMK AO2 SLP228 T01111089 10133 20100 53004





000
SAUS46 KMTR 312255
MTRMHS
METAR KMHS 312256Z AUTO 34010G19KT 10SM FEW080 13/M08 A3014 RMK AO2
SLP220 T01281083





000
SAUS46 KMTR 312255
MTRMHS
METAR KMHS 312256Z AUTO 34010G19KT 10SM FEW080 13/M08 A3014 RMK AO2
SLP220 T01281083





000
SAUS46 KMTR 312155
MTRMHS
METAR KMHS 312156Z AUTO 10SM SCT090 11/M07 A3014 RMK AO2 SLP225
T01061072





000
SAUS46 KMTR 312055
MTRMHS
METAR KMHS 312056Z AUTO 33008G18KT 280V010 10SM FEW085 13/M07 A3014
RMK AO2 SLP217 T01331072 51007





000
SAUS46 KMTR 311957
MTRMHS
METAR KMHS 311956Z AUTO 33010G20KT 290V010 10SM FEW055 SCT070 13/M05
A3013 RMK AO2 SLP214 T01281050





000
SAUS46 KMTR 311855
MTRMHS
METAR KMHS 311856Z AUTO 01007G15KT 340V040 10SM CLR 12/M03 A3012 RMK
AO2 SLP210 T01171028





000
SAUS46 KMTR 311855
MTRMHS
METAR KMHS 311856Z AUTO 01007G15KT 340V040 10SM CLR 12/M03 A3012 RMK
AO2 SLP210 T01171028





000
SAUS46 KMTR 311756
MTRMHS
METAR KMHS 311756Z AUTO VRB06G16KT 10SM FEW045 BKN060 10/01 A3011
RMK AO2 RAE1659 SLP206 P0000 60000 T01000006 10111 20011 51024





000
SAUS46 KMTR 311756
MTRMHS
METAR KMHS 311756Z AUTO VRB06G16KT 10SM FEW045 BKN060 10/01 A3011
RMK AO2 RAE1659 SLP206 P0000 60000 T01000006 10111 20011 51024





000
SAUS46 KMTR 311657
MTRMHS
METAR KMHS 311656Z AUTO VRB04KT 10SM -RA SCT037 BKN044 BKN060 07/02
A3010 RMK AO2 RAB45 SLP203 P0000 T00720017





000
SAUS46 KMTR 311555
MTRMHS
METAR KMHS 311556Z AUTO 35007G19KT 310V050 10SM CLR 09/02 A3007 RMK
AO2 SLP187 T00890017





000
SAUS46 KMTR 311456
MTRMHS
METAR KMHS 311456Z AUTO 29005KT 10SM CLR 07/M02 A3003 RMK AO2 SLP177
T00671017 53012





000
SAUS46 KMTR 311456
MTRMHS
METAR KMHS 311456Z AUTO 29005KT 10SM CLR 07/M02 A3003 RMK AO2 SLP177
T00671017 53012





000
SAUS46 KMTR 311356
MTRMHS
METAR KMHS 311356Z AUTO 00000KT 10SM CLR 02/M03 A3002 RMK AO2 SLP176
T00171028





000
SAUS46 KMTR 311255
MTRMHS
METAR KMHS 311256Z AUTO 00000KT 10SM CLR 02/M03 A3000 RMK AO2 SLP168
T00171028





000
SAUS46 KMTR 311255
MTRMHS
METAR KMHS 311256Z AUTO 00000KT 10SM CLR 02/M03 A3000 RMK AO2 SLP168
T00171028





000
SAUS46 KMTR 311155
MTRMHS
METAR KMHS 311156Z AUTO 05003KT 10SM CLR 03/M02 A2999 RMK AO2 SLP161
T00331022 10117 20033 55001





000
SAUS46 KMTR 311155
MTRMHS
METAR KMHS 311156Z AUTO 05003KT 10SM CLR 03/M02 A2999 RMK AO2 SLP161
T00331022 10117 20033 55001





000
SAUS46 KMTR 311055
MTRMHS
METAR KMHS 311056Z AUTO 05005KT 10SM CLR 05/M03 A2999 RMK AO2 SLP158
T00501028





000
SAUS46 KMTR 311055
MTRMHS
METAR KMHS 311056Z AUTO 05005KT 10SM CLR 05/M03 A2999 RMK AO2 SLP158
T00501028





000
SAUS46 KMTR 310955
MTRMHS
METAR KMHS 310956Z AUTO 06003KT 10SM CLR 04/M02 A2999 RMK AO2 SLP160
T00391017





000
SAUS46 KMTR 310955
MTRMHS
METAR KMHS 310956Z AUTO 06003KT 10SM CLR 04/M02 A2999 RMK AO2 SLP160
T00391017





000
SAUS46 KMTR 310855
MTRMHS
METAR KMHS 310856Z AUTO 06004KT 10SM CLR 06/M02 A3000 RMK AO2 SLP159
T00611017 58003





000
SAUS46 KMTR 310855
MTRMHS
METAR KMHS 310856Z AUTO 06004KT 10SM CLR 06/M02 A3000 RMK AO2 SLP159
T00611017 58003





000
SAUS46 KMTR 310755
MTRMHS
METAR KMHS 310756Z AUTO 06004KT 10SM CLR 08/00 A3001 RMK AO2 SLP161
T00780000 402330033





000
SAUS46 KMTR 310655
MTRMHS
METAR KMHS 310656Z AUTO 00000KT 10SM CLR 09/04 A3001 RMK AO2 SLP161
T00890039





000
SAUS46 KMTR 310655
MTRMHS
METAR KMHS 310656Z AUTO 00000KT 10SM CLR 09/04 A3001 RMK AO2 SLP161
T00890039





000
SAUS46 KMTR 310555
MTRMHS
METAR KMHS 310556Z AUTO 00000KT 10SM CLR 12/04 A3001 RMK AO2 SLP163
T01170044 10217 20117 51006





000
SAUS46 KMTR 310555
MTRMHS
METAR KMHS 310556Z AUTO 00000KT 10SM CLR 12/04 A3001 RMK AO2 SLP163
T01170044 10217 20117 51006





000
SAUS46 KMTR 310455
MTRMHS
METAR KMHS 310456Z AUTO 00000KT 10SM CLR 13/04 A3001 RMK AO2 SLP163
T01330044





000
SAUS46 KMTR 310455
MTRMHS
METAR KMHS 310456Z AUTO 00000KT 10SM CLR 13/04 A3001 RMK AO2 SLP163
T01330044





000
SAUS46 KMTR 310355
MTRMHS
METAR KMHS 310356Z AUTO 00000KT 10SM CLR 16/04 A3000 RMK AO2 SLP160
T01560044





000
SAUS46 KMTR 310255
MTRMHS
METAR KMHS 310256Z AUTO VRB03KT 10SM CLR 17/03 A2999 RMK AO2 SLP162
T01670033 56003





000
SAUS46 KMTR 310255
MTRMHS
METAR KMHS 310256Z AUTO VRB03KT 10SM CLR 17/03 A2999 RMK AO2 SLP162
T01670033 56003





000
SAUS46 KMTR 310155
MTRMHS
METAR KMHS 310156Z AUTO 00000KT 10SM CLR 18/03 A2999 RMK AO2 SLP164
T01830033





000
SAUS46 KMTR 310057
MTRMHS
METAR KMHS 310056Z AUTO 00000KT 10SM CLR 21/02 A2999 RMK AO2 SLP159
T02060022





000
SAUS46 KMTR 310057
MTRMHS
METAR KMHS 310056Z AUTO 00000KT 10SM CLR 21/02 A2999 RMK AO2 SLP159
T02060022





000
SAUS46 KMTR 302355
MTRMHS
METAR KMHS 302356Z AUTO 13004KT 10SM CLR 22/02 A3000 RMK AO2 SLP161
T02170022 10233 20172 56016





000
SAUS46 KMTR 302355
MTRMHS
METAR KMHS 302356Z AUTO 13004KT 10SM CLR 22/02 A3000 RMK AO2 SLP161
T02170022 10233 20172 56016





000
SAUS46 KMTR 302255
MTRMHS
METAR KMHS 302256Z AUTO VRB03KT 10SM CLR 22/02 A3001 RMK AO2 SLP165
T02220022





000
SAUS46 KMTR 302255
MTRMHS
METAR KMHS 302256Z AUTO VRB03KT 10SM CLR 22/02 A3001 RMK AO2 SLP165
T02220022





000
SAUS46 KMTR 302155
MTRMHS
METAR KMHS 302156Z AUTO VRB04KT 10SM CLR 22/01 A3003 RMK AO2 SLP172
T02220006





000
SAUS46 KMTR 302055
MTRMHS
METAR KMHS 302056Z AUTO VRB03KT 10SM CLR 23/02 A3005 RMK AO2 SLP177
T02280022 58012





000
SAUS46 KMTR 301955
MTRMHS
METAR KMHS 301956Z AUTO 12004KT 10SM CLR 22/03 A3008 RMK AO2 SLP183
T02220028





000
SAUS46 KMTR 301855
MTRMHS
METAR KMHS 301856Z AUTO VRB03KT 10SM CLR 21/01 A3008 RMK AO2 SLP184
T02110011





000
SAUS46 KMTR 301855
MTRMHS
METAR KMHS 301856Z AUTO VRB03KT 10SM CLR 21/01 A3008 RMK AO2 SLP184
T02110011





000
SAUS46 KMTR 301755
MTRMHS
METAR KMHS 301756Z AUTO 00000KT 10SM CLR 17/04 A3009 RMK AO2 SLP191
T01720039 10172 20033 58006





000
SAUS46 KMTR 301755
MTRMHS
METAR KMHS 301756Z AUTO 00000KT 10SM CLR 17/04 A3009 RMK AO2 SLP191
T01720039 10172 20033 58006





000
SAUS46 KMTR 301657
MTRMHS
METAR KMHS 301656Z AUTO 00000KT 10SM CLR 16/04 A3010 RMK AO2 SLP199
T01560039





000
SAUS46 KMTR 301657
MTRMHS
METAR KMHS 301656Z AUTO 00000KT 10SM CLR 16/04 A3010 RMK AO2 SLP199
T01560039





000
SAUS46 KMTR 301555
MTRMHS
METAR KMHS 301556Z AUTO 00000KT 10SM CLR 12/03 A3011 RMK AO2 SLP202
T01170028





000
SAUS46 KMTR 301455
MTRMHS
METAR KMHS 301456Z AUTO 00000KT 10SM CLR 06/01 A3011 RMK AO2 SLP208
T00610011 57004





000
SAUS46 KMTR 301355
MTRMHS
METAR KMHS 301356Z AUTO 00000KT 10SM CLR 03/01 A3012 RMK AO2 SLP209
T00330006





000
SAUS46 KMTR 301355
MTRMHS
METAR KMHS 301356Z AUTO 00000KT 10SM CLR 03/01 A3012 RMK AO2 SLP209
T00330006





000
SAUS46 KMTR 301255
MTRMHS
METAR KMHS 301256Z AUTO 04004KT 10SM CLR 06/01 A3012 RMK AO2 SLP204
T00560011





000
SAUS46 KMTR 301155
MTRMHS
METAR KMHS 301156Z AUTO 04004KT 10SM CLR 06/01 A3013 RMK AO2 SLP206
T00610011 10128 20056 58009





000
SAUS46 KMTR 301155
MTRMHS
METAR KMHS 301156Z AUTO 04004KT 10SM CLR 06/01 A3013 RMK AO2 SLP206
T00610011 10128 20056 58009





000
SAUS46 KMTR 301055
MTRMHS
METAR KMHS 301056Z AUTO 00000KT 10SM CLR 06/01 A3014 RMK AO2 SLP210
T00560011





000
SAUS46 KMTR 301055
MTRMHS
METAR KMHS 301056Z AUTO 00000KT 10SM CLR 06/01 A3014 RMK AO2 SLP210
T00560011





000
SAUS46 KMTR 300955
MTRMHS
METAR KMHS 300956Z AUTO 04003KT 10SM CLR 06/01 A3014 RMK AO2 SLP211
T00560006





000
SAUS46 KMTR 300855
MTRMHS
METAR KMHS 300856Z AUTO 04003KT 10SM CLR 07/01 A3016 RMK AO2 SLP216
T00670006 58002





000
SAUS46 KMTR 300855
MTRMHS
METAR KMHS 300856Z AUTO 04003KT 10SM CLR 07/01 A3016 RMK AO2 SLP216
T00670006 58002





000
SAUS46 KMTR 300755
MTRMHS
METAR KMHS 300756Z AUTO 07003KT 10SM CLR 08/01 A3016 RMK AO2 SLP217
T00830006 402220044





000
SAUS46 KMTR 300755
MTRMHS
METAR KMHS 300756Z AUTO 07003KT 10SM CLR 08/01 A3016 RMK AO2 SLP217
T00830006 402220044





000
SAUS46 KMTR 300655
MTRMHS
METAR KMHS 300656Z AUTO 00000KT 10SM CLR 10/01 A3016 RMK AO2 SLP217
T01000011





000
SAUS46 KMTR 300655
MTRMHS
METAR KMHS 300656Z AUTO 00000KT 10SM CLR 10/01 A3016 RMK AO2 SLP217
T01000011





000
SAUS46 KMTR 300555
MTRMHS
METAR KMHS 300556Z AUTO VRB03KT 10SM CLR 13/01 A3016 RMK AO2 SLP216
T01280006 10211 20094 53011





000
SAUS46 KMTR 300555
MTRMHS
METAR KMHS 300556Z AUTO VRB03KT 10SM CLR 13/01 A3016 RMK AO2 SLP216
T01280006 10211 20094 53011





000
SAUS46 KMTR 300457
MTRMHS
METAR KMHS 300456Z AUTO 00000KT 10SM CLR 10/01 A3015 RMK AO2 SLP218
T01000011





000
SAUS46 KMTR 300457
MTRMHS
METAR KMHS 300456Z AUTO 00000KT 10SM CLR 10/01 A3015 RMK AO2 SLP218
T01000011





000
SAUS46 KMTR 300355
MTRMHS
METAR KMHS 300356Z AUTO 00000KT 10SM CLR 12/01 A3014 RMK AO2 SLP213
T01170011





000
SAUS46 KMTR 300355
MTRMHS
METAR KMHS 300356Z AUTO 00000KT 10SM CLR 12/01 A3014 RMK AO2 SLP213
T01170011





000
SAUS46 KMTR 300255
MTRMHS
METAR KMHS 300256Z AUTO 00000KT 10SM CLR 14/01 A3013 RMK AO2 SLP212
T01440006 55003





000
SAUS46 KMTR 300155
MTRMHS
METAR KMHS 300156Z AUTO 29004KT 10SM CLR 18/00 A3012 RMK AO2 SLP208
T01780000





000
SAUS46 KMTR 300155
MTRMHS
METAR KMHS 300156Z AUTO 29004KT 10SM CLR 18/00 A3012 RMK AO2 SLP208
T01780000





000
SAUS46 KMTR 300055
MTRMHS
METAR KMHS 300056Z AUTO VRB06KT 10SM CLR 21/M02 A3013 RMK AO2 SLP205
T02061022





000
SAUS46 KMTR 300055
MTRMHS
METAR KMHS 300056Z AUTO VRB06KT 10SM CLR 21/M02 A3013 RMK AO2 SLP205
T02061022





000
SAUS46 KMTR 292355
MTRMHS
METAR KMHS 292356Z AUTO VRB04KT 10SM CLR 21/M01 A3014 RMK AO2 SLP209
T02061011 10222 20156 56018





000
SAUS46 KMTR 292355
MTRMHS
METAR KMHS 292356Z AUTO VRB04KT 10SM CLR 21/M01 A3014 RMK AO2 SLP209
T02061011 10222 20156 56018





000
SAUS46 KMTR 292255
MTRMHS
METAR KMHS 292256Z AUTO VRB06KT 10SM CLR 22/M04 A3015 RMK AO2 SLP210
T02221039





000
SAUS46 KMTR 292255
MTRMHS
METAR KMHS 292256Z AUTO VRB06KT 10SM CLR 22/M04 A3015 RMK AO2 SLP210
T02221039





    US Dept of Commerce
    National Oceanic and Atmospheric Administration
    National Weather Service
    1325 East West Highway
    Silver Spring, MD 20910
    Page Author: NWS Internet Services Team
Disclaimer
Information Quality
Credits
Glossary
Privacy Policy
Freedom of Information Act (FOIA)
About Us
Career Opportunities